createdAt,value
2023-02-18T00:00:29.548Z,28.03
2023-02-18T00:02:56.520Z,27.80
2023-02-18T00:05:23.435Z,28.03
2023-02-18T00:07:50.642Z,26.27
2023-02-18T00:10:17.972Z,26.10
2023-02-18T00:12:45.508Z,22.13
2023-02-18T00:15:12.504Z,24.30
2023-02-18T00:17:39.463Z,25.23
2023-02-18T00:20:07.743Z,23.20
2023-02-18T00:22:34.724Z,24.47
2023-02-18T00:25:01.631Z,25.10
2023-02-18T00:27:28.601Z,24.40
2023-02-18T00:29:55.497Z,22.70
2023-02-18T00:32:22.430Z,22.97
2023-02-18T00:34:49.302Z,20.90
2023-02-18T00:37:16.211Z,21.63
2023-02-18T00:39:44.276Z,21.90
2023-02-18T00:42:11.216Z,21.57
2023-02-18T00:44:38.100Z,21.40
2023-02-18T00:47:05.131Z,21.40
2023-02-18T00:49:31.976Z,23.67
2023-02-18T00:51:58.840Z,22.87
2023-02-18T00:54:25.761Z,24.23
2023-02-18T00:56:52.713Z,23.33
2023-02-18T00:59:19.593Z,21.90
2023-02-18T01:01:46.873Z,23.37
2023-02-18T01:04:13.748Z,22.57
2023-02-18T01:06:40.612Z,19.93
2023-02-18T01:09:07.610Z,19.70
2023-02-18T01:11:34.947Z,19.30
2023-02-18T01:14:01.937Z,17.90
2023-02-18T01:16:29.010Z,19.30
2023-02-18T01:18:55.914Z,16.50
2023-02-18T01:21:22.765Z,17.40
2023-02-18T01:23:49.624Z,19.63
2023-02-18T01:26:16.516Z,21.50
2023-02-18T01:28:43.385Z,23.63
2023-02-18T01:31:13.407Z,23.90
2023-02-18T01:33:40.999Z,23.70
2023-02-18T01:36:09.546Z,27.47
2023-02-18T01:38:37.005Z,26.70
2023-02-18T01:41:04.503Z,27.50
2023-02-18T01:43:32.126Z,30.13
2023-02-18T01:46:25.410Z,31.90
2023-02-18T01:49:00.098Z,32.77
2023-02-18T01:51:34.238Z,35.10
2023-02-18T01:54:13.243Z,40.90
2023-02-18T01:56:55.104Z,40.10
2023-02-18T01:59:29.914Z,42.70
2023-02-18T02:01:57.394Z,45.00
2023-02-18T02:04:24.756Z,40.10
2023-02-18T02:06:51.636Z,43.80
2023-02-18T02:09:21.460Z,44.70
2023-02-18T02:12:34.006Z,41.97
2023-02-18T02:15:47.380Z,37.40
2023-02-18T02:19:04.493Z,37.10
2023-02-18T02:22:25.610Z,37.03
2023-02-18T02:25:16.481Z,36.50
2023-02-18T02:28:16.502Z,37.37
2023-02-18T02:55:00.239Z,30.67
2023-02-18T02:57:49.418Z,33.87
2023-02-18T03:00:19.601Z,32.13
2023-02-18T03:11:58.791Z,30.40
2023-02-18T03:14:36.306Z,33.70
2023-02-18T03:17:11.225Z,33.40
2023-02-18T03:20:05.485Z,31.70
2023-02-18T03:22:38.278Z,32.57
2023-02-18T03:25:06.259Z,35.10
2023-02-18T03:27:38.621Z,34.60
2023-02-18T03:30:14.034Z,33.27
2023-02-18T03:32:41.196Z,33.90
2023-02-18T03:35:16.167Z,35.57
2023-02-18T03:37:50.445Z,35.80
2023-02-18T03:40:18.690Z,34.40
2023-02-18T03:42:45.959Z,34.17
2023-02-18T03:45:12.866Z,35.93
2023-02-18T03:47:39.781Z,32.80
2023-02-18T03:50:07.852Z,33.37
2023-02-18T03:52:36.753Z,32.83
2023-02-18T03:55:07.352Z,28.53
2023-02-18T03:57:34.329Z,30.23
2023-02-18T04:00:01.246Z,29.70
2023-02-18T04:02:28.118Z,28.80
2023-02-18T04:04:55.062Z,26.33
2023-02-18T04:07:22.148Z,26.53
2023-02-18T04:09:49.236Z,26.87
2023-02-18T04:12:16.137Z,22.23
2023-02-18T04:14:43.106Z,23.43
2023-02-18T04:17:10.216Z,22.70
2023-02-18T04:19:37.152Z,21.40
2023-02-18T04:22:04.128Z,19.27
2023-02-18T04:24:30.995Z,18.07
2023-02-18T04:26:57.893Z,15.93
2023-02-18T04:29:24.812Z,15.90
2023-02-18T04:31:51.814Z,15.70
2023-02-18T04:34:18.751Z,14.30
2023-02-18T04:36:45.711Z,14.13
2023-02-18T04:39:12.628Z,13.43
2023-02-18T04:41:39.697Z,13.80
2023-02-18T04:44:06.560Z,13.40
2023-02-18T04:46:33.695Z,13.43
2023-02-18T04:49:00.648Z,14.70
2023-02-18T04:51:27.605Z,13.37
2023-02-18T04:53:54.539Z,13.80
2023-02-18T04:56:21.450Z,13.80
2023-02-18T04:58:48.360Z,13.50
2023-02-18T05:01:15.231Z,13.60
2023-02-18T05:03:42.228Z,13.57
2023-02-18T05:06:09.414Z,12.40
2023-02-18T05:08:36.513Z,13.37
2023-02-18T05:11:07.300Z,11.70
2023-02-18T05:13:34.629Z,11.13
2023-02-18T05:16:01.670Z,10.60
2023-02-18T05:18:28.688Z,10.63
2023-02-18T05:20:55.574Z,10.20
2023-02-18T05:23:22.427Z,11.37
2023-02-18T05:25:49.363Z,9.90
2023-02-18T05:28:16.213Z,10.30
2023-02-18T05:30:43.313Z,11.20
2023-02-18T05:33:10.230Z,8.87
2023-02-18T05:35:37.239Z,10.60
2023-02-18T05:38:04.300Z,8.87
2023-02-18T05:40:31.246Z,9.00
2023-02-18T05:42:58.258Z,8.83
2023-02-18T05:45:25.195Z,8.03
2023-02-18T05:47:52.122Z,6.77
2023-02-18T05:50:19.124Z,7.37
2023-02-18T05:52:46.064Z,7.30
2023-02-18T05:55:13.128Z,6.60
2023-02-18T05:57:40.375Z,5.93
2023-02-18T06:00:09.963Z,4.60
2023-02-18T06:02:37.398Z,4.57
2023-02-18T06:05:05.671Z,5.27
2023-02-18T06:07:32.585Z,4.27
2023-02-18T06:09:59.609Z,2.87
2023-02-18T06:12:26.612Z,3.00
2023-02-18T06:14:53.473Z,3.00
2023-02-18T06:17:22.647Z,2.60
2023-02-18T06:19:49.602Z,2.70
2023-02-18T06:22:16.512Z,2.20
2023-02-18T06:24:43.353Z,1.90
2023-02-18T06:27:10.211Z,1.63
2023-02-18T06:29:37.188Z,1.60
2023-02-18T06:32:04.551Z,2.00
2023-02-18T06:34:31.549Z,1.60
2023-02-18T06:36:59.412Z,1.90
2023-02-18T06:39:27.949Z,3.13
2023-02-18T06:41:54.797Z,2.97
2023-02-18T06:44:21.700Z,2.17
2023-02-18T06:46:48.665Z,2.30
2023-02-18T06:49:15.545Z,2.23
2023-02-18T06:51:42.469Z,1.90
2023-02-18T06:54:09.408Z,2.83
2023-02-18T06:56:36.281Z,2.80
2023-02-18T06:59:03.196Z,3.40
2023-02-18T07:01:30.073Z,3.40
2023-02-18T07:03:57.000Z,3.90
2023-02-18T07:06:23.932Z,3.73
2023-02-18T07:08:50.887Z,3.50
2023-02-18T07:11:17.891Z,4.30
2023-02-18T07:13:44.813Z,4.00
2023-02-18T07:16:12.254Z,4.10
2023-02-18T07:18:39.494Z,4.10
2023-02-18T07:21:06.371Z,3.87
2023-02-18T07:23:33.236Z,3.57
2023-02-18T07:26:05.825Z,3.00
2023-02-18T07:28:32.904Z,3.47
2023-02-18T07:30:59.883Z,3.17
2023-02-18T07:33:26.737Z,3.00
2023-02-18T07:35:55.811Z,2.40
2023-02-18T07:38:24.072Z,2.63
2023-02-18T07:40:51.352Z,2.70
2023-02-18T07:43:18.516Z,3.00
2023-02-18T07:45:45.452Z,3.13
2023-02-18T07:48:13.520Z,2.43
2023-02-18T07:50:45.267Z,3.30
2023-02-18T07:53:14.413Z,3.70
2023-02-18T07:55:50.235Z,3.57
2023-02-18T07:58:26.525Z,3.97
2023-02-18T08:00:54.659Z,3.43
2023-02-18T08:03:27.251Z,3.40
2023-02-18T08:05:55.368Z,3.50
2023-02-18T08:08:27.659Z,3.87
2023-02-18T08:10:58.547Z,4.10
2023-02-18T08:13:25.748Z,4.13
2023-02-18T08:15:57.780Z,4.40
2023-02-18T08:18:26.439Z,5.30
2023-02-18T08:20:54.086Z,4.90
2023-02-18T08:23:22.083Z,5.30
2023-02-18T08:25:50.942Z,5.50
2023-02-18T08:28:19.995Z,6.20
2023-02-18T08:30:48.685Z,6.27
2023-02-18T08:33:16.550Z,6.00
2023-02-18T08:35:43.987Z,6.37
2023-02-18T08:38:10.941Z,6.30
2023-02-18T08:40:38.193Z,5.97
2023-02-18T08:43:05.055Z,5.33
2023-02-18T08:45:31.927Z,5.50
2023-02-18T08:48:17.901Z,4.90
2023-02-18T08:50:45.619Z,4.40
2023-02-18T08:53:12.446Z,4.60
2023-02-18T08:55:41.604Z,5.23
2023-02-18T08:58:09.104Z,5.60
2023-02-18T09:00:39.075Z,4.97
2023-02-18T09:03:06.207Z,6.30
2023-02-18T09:05:33.241Z,5.57
2023-02-18T09:08:00.377Z,5.00
2023-02-18T09:10:27.304Z,4.90
2023-02-18T09:12:54.157Z,4.33
2023-02-18T09:15:21.025Z,3.50
2023-02-18T09:17:47.860Z,3.97
2023-02-18T09:20:15.305Z,3.90
2023-02-18T09:22:42.214Z,3.47
2023-02-18T09:25:09.131Z,5.00
2023-02-18T09:27:36.047Z,4.73
2023-02-18T09:30:03.558Z,4.60
2023-02-18T09:32:35.001Z,5.07
2023-02-18T09:35:03.804Z,5.00
2023-02-18T09:37:30.779Z,5.77
2023-02-18T09:39:57.698Z,5.70
2023-02-18T09:42:31.222Z,4.90
2023-02-18T09:45:02.705Z,4.90
2023-02-18T09:47:41.321Z,4.60
2023-02-18T09:50:33.128Z,5.63
2023-02-18T09:53:01.831Z,6.67
2023-02-18T09:55:36.350Z,6.63
2023-02-18T09:58:06.772Z,6.70
2023-02-18T10:00:43.242Z,7.97
2023-02-18T10:03:26.103Z,9.30
2023-02-18T10:06:18.429Z,9.70
2023-02-18T10:08:48.131Z,10.70
2023-02-18T10:11:35.285Z,10.40
2023-02-18T10:14:04.262Z,9.20
2023-02-18T10:16:31.492Z,11.10
2023-02-18T10:19:04.026Z,9.50
2023-02-18T10:21:36.221Z,10.13
2023-02-18T10:24:26.779Z,10.10
2023-02-18T10:26:53.779Z,10.10
2023-02-18T10:29:22.131Z,10.00
2023-02-18T10:32:23.279Z,10.13
2023-02-18T10:35:35.290Z,9.67
2023-02-18T10:38:32.494Z,9.67
2023-02-18T10:41:34.502Z,9.93
2023-02-18T10:44:36.364Z,9.93
2023-02-18T10:47:40.340Z,9.90
2023-02-18T10:50:30.606Z,10.10
2023-02-18T10:53:02.155Z,9.50
2023-02-18T10:55:44.946Z,10.67
2023-02-18T10:58:47.268Z,11.63
2023-02-18T11:01:17.324Z,10.53
2023-02-18T11:03:52.606Z,10.73
2023-02-18T11:06:31.867Z,10.43
2023-02-18T11:09:00.655Z,10.93
2023-02-18T11:11:38.050Z,10.97
2023-02-18T11:14:08.169Z,10.53
2023-02-18T11:16:41.353Z,11.07
2023-02-18T11:19:37.318Z,11.43
2023-02-18T11:22:23.555Z,11.20
2023-02-18T11:24:58.998Z,10.93
2023-02-18T11:27:48.636Z,10.67
2023-02-18T11:30:22.920Z,10.80
2023-02-18T11:32:54.474Z,10.77
2023-02-18T11:35:25.774Z,10.67
2023-02-18T11:37:53.626Z,10.63
2023-02-18T11:40:35.289Z,9.50
2023-02-18T11:43:30.129Z,9.30
2023-02-18T11:46:12.071Z,10.70
2023-02-18T11:48:39.215Z,11.40
2023-02-18T11:51:07.370Z,10.50
2023-02-18T11:53:37.615Z,11.63
2023-02-18T11:56:16.632Z,11.43
2023-02-18T11:58:46.376Z,11.57
2023-02-18T12:01:29.978Z,11.63
2023-02-18T12:04:22.330Z,11.60
2023-02-18T12:07:24.994Z,10.87
2023-02-18T12:09:58.160Z,10.80
2023-02-18T12:12:50.970Z,11.07
2023-02-18T12:15:24.447Z,11.10
2023-02-18T12:18:18.696Z,11.80
2023-02-18T12:21:03.597Z,12.77
2023-02-18T12:24:16.382Z,12.17
2023-02-18T12:27:23.013Z,13.33
2023-02-18T12:30:19.071Z,13.37
2023-02-18T12:33:12.379Z,11.93
2023-02-18T12:35:57.539Z,12.20
2023-02-18T12:39:15.615Z,11.07
2023-02-18T12:42:32.051Z,10.07
2023-02-18T12:45:35.510Z,10.87
2023-02-18T12:48:43.129Z,10.90
2023-02-18T12:51:39.031Z,9.20
2023-02-18T12:54:44.852Z,9.67
2023-02-18T12:57:39.406Z,10.30
2023-02-18T13:00:36.278Z,10.27
2023-02-18T13:13:18.714Z,10.30
2023-02-18T13:16:16.355Z,10.70
2023-02-18T13:19:02.193Z,10.57
2023-02-18T13:21:31.193Z,10.33
2023-02-18T13:24:05.660Z,11.80
2023-02-18T13:26:34.882Z,12.20
2023-02-18T13:29:46.022Z,11.27
2023-02-18T13:32:42.117Z,12.87
2023-02-18T13:35:44.535Z,12.60
2023-02-18T13:38:51.984Z,12.77
2023-02-18T13:41:20.227Z,11.43
2023-02-18T13:43:47.964Z,11.87
2023-02-18T13:46:25.039Z,11.27
2023-02-18T13:49:22.751Z,11.20
2023-02-18T13:51:51.984Z,11.33
2023-02-18T13:54:46.547Z,11.23
2023-02-18T13:57:20.098Z,10.47
2023-02-18T13:59:56.667Z,12.47
2023-02-18T14:02:34.123Z,11.17
2023-02-18T14:05:40.002Z,12.30
2023-02-18T14:08:36.697Z,11.90
2023-02-18T14:11:34.985Z,12.60
2023-02-18T14:14:45.844Z,13.00
2023-02-18T14:17:31.267Z,14.57
2023-02-18T14:20:28.390Z,13.97
2023-02-18T14:22:55.730Z,15.40
2023-02-18T14:25:38.432Z,14.80
2023-02-18T14:28:55.386Z,15.77
2023-02-18T14:32:01.842Z,14.67
2023-02-18T14:35:04.663Z,16.07
2023-02-18T14:38:08.031Z,14.97
2023-02-18T14:41:13.873Z,14.37
2023-02-18T14:44:24.382Z,15.77
2023-02-18T14:46:59.988Z,16.63
2023-02-18T14:49:51.940Z,17.03
2023-02-18T14:52:56.792Z,17.80
2023-02-18T14:55:32.669Z,18.53
2023-02-18T14:58:53.474Z,19.17
2023-02-18T15:01:29.781Z,21.80
2023-02-18T15:03:57.251Z,20.80
2023-02-18T15:06:34.288Z,21.03
2023-02-18T15:09:05.799Z,20.50
2023-02-18T15:12:08.237Z,19.90
2023-02-18T15:14:38.881Z,21.77
2023-02-18T15:17:12.176Z,23.07
2023-02-18T15:19:42.959Z,22.20
2023-02-18T15:22:19.625Z,22.80
2023-02-18T15:24:47.150Z,23.50
2023-02-18T15:27:31.532Z,23.40
2023-02-18T15:30:13.164Z,22.97
2023-02-18T15:32:40.136Z,23.17
2023-02-18T15:35:17.401Z,23.63
2023-02-18T15:37:52.048Z,22.10
2023-02-18T15:40:19.855Z,24.17
2023-02-18T15:42:50.468Z,24.90
2023-02-18T15:45:26.004Z,23.53
2023-02-18T15:47:57.883Z,23.53
2023-02-18T15:50:29.177Z,24.23
2023-02-18T15:52:59.867Z,23.90
2023-02-18T15:55:35.616Z,24.47
2023-02-18T15:58:22.850Z,21.70
2023-02-18T16:01:01.601Z,22.23
2023-02-18T16:03:31.231Z,22.50
2023-02-18T16:06:32.518Z,21.03
2023-02-18T16:09:03.430Z,23.30
2023-02-18T16:11:35.666Z,22.03
2023-02-18T16:14:03.313Z,23.10
2023-02-18T16:16:36.278Z,23.30
2023-02-18T16:19:03.788Z,22.37
2023-02-18T16:21:39.847Z,22.80
2023-02-18T16:24:41.011Z,22.80
2023-02-18T16:27:15.835Z,23.10
2023-02-18T16:29:43.667Z,22.70
2023-02-18T16:32:10.788Z,21.10
2023-02-18T16:34:37.781Z,22.63
2023-02-18T16:37:23.265Z,24.37
2023-02-18T16:39:54.592Z,22.57
2023-02-18T16:42:21.967Z,22.77
2023-02-18T16:44:50.609Z,23.37
2023-02-18T16:47:18.590Z,23.17
2023-02-18T16:49:47.976Z,22.50
2023-02-18T16:52:17.229Z,21.27
2023-02-18T16:54:44.135Z,23.10
2023-02-18T16:57:11.631Z,21.50
2023-02-18T16:59:38.508Z,22.47
2023-02-18T17:02:10.757Z,23.30
2023-02-18T17:04:38.290Z,21.90
2023-02-18T17:07:10.973Z,22.90
2023-02-18T17:09:38.029Z,22.53
2023-02-18T17:12:05.187Z,20.83
2023-02-18T17:14:32.217Z,22.27
2023-02-18T17:16:59.359Z,24.57
2023-02-18T17:19:26.338Z,24.20
2023-02-18T17:21:53.209Z,23.90
2023-02-18T17:24:20.058Z,24.03
2023-02-18T17:26:46.981Z,23.87
2023-02-18T17:29:14.072Z,23.57
2023-02-18T17:31:47.626Z,22.67
2023-02-18T17:34:18.607Z,24.10
2023-02-18T17:36:45.580Z,25.30
2023-02-18T17:39:14.525Z,24.17
2023-02-18T17:41:42.393Z,24.17
2023-02-18T17:44:16.232Z,23.47
2023-02-18T17:46:43.278Z,25.63
2023-02-18T17:49:10.174Z,24.53
2023-02-18T17:51:38.441Z,25.90
2023-02-18T17:54:17.139Z,25.20
2023-02-18T17:56:44.345Z,23.57
2023-02-18T17:59:11.394Z,24.70
2023-02-18T18:01:38.574Z,23.90
2023-02-18T18:04:13.142Z,23.53
2023-02-18T18:06:40.180Z,24.03
2023-02-18T18:09:07.089Z,24.70
2023-02-18T18:11:34.243Z,24.80
2023-02-18T18:14:01.259Z,21.50
2023-02-18T18:16:28.236Z,22.23
2023-02-18T18:18:55.209Z,23.03
2023-02-18T18:21:49.043Z,23.87
2023-02-18T18:24:15.933Z,21.77
2023-02-18T18:26:42.903Z,22.63
2023-02-18T18:29:09.764Z,20.87
2023-02-18T18:31:37.689Z,20.80
2023-02-18T18:34:04.686Z,20.67
2023-02-18T18:36:31.550Z,22.63
2023-02-18T18:38:58.386Z,23.67
2023-02-18T18:41:25.392Z,22.70
2023-02-18T18:43:52.505Z,23.00
2023-02-18T18:46:21.954Z,23.37
2023-02-18T18:48:48.912Z,20.20
2023-02-18T18:51:23.099Z,21.10
2023-02-18T18:53:50.086Z,20.30
2023-02-18T18:56:16.986Z,21.13
2023-02-18T18:58:44.864Z,20.70
2023-02-18T19:01:17.748Z,21.60
2023-02-18T19:03:46.544Z,22.10
2023-02-18T19:06:15.953Z,23.13
2023-02-18T19:08:43.399Z,24.87
2023-02-18T19:11:12.980Z,22.20
2023-02-18T19:13:39.958Z,22.50
2023-02-18T19:16:28.791Z,21.07
2023-02-18T19:18:55.701Z,20.70
2023-02-18T19:21:22.625Z,21.87
2023-02-18T19:23:49.551Z,22.20
2023-02-18T19:26:17.115Z,23.23
2023-02-18T19:28:45.262Z,22.53
2023-02-18T19:31:13.136Z,22.33
2023-02-18T19:33:40.452Z,22.17
2023-02-18T19:36:09.332Z,23.47
2023-02-18T19:38:36.556Z,23.90
2023-02-18T19:41:14.432Z,21.90
2023-02-18T19:43:43.014Z,22.90
2023-02-18T19:46:18.312Z,22.47
2023-02-18T19:48:52.692Z,22.43
2023-02-18T19:51:21.434Z,21.90
2023-02-18T19:53:48.337Z,23.20
2023-02-18T19:56:15.178Z,23.50
2023-02-18T19:58:42.135Z,23.17
2023-02-18T20:01:14.117Z,22.90
2023-02-18T20:03:41.823Z,23.80
2023-02-18T20:06:18.552Z,23.27
2023-02-18T20:08:46.350Z,25.07
2023-02-18T20:11:13.388Z,27.33
2023-02-18T20:13:40.310Z,27.50
2023-02-18T20:16:08.822Z,27.10
2023-02-18T20:18:36.404Z,25.27
2023-02-18T20:21:03.489Z,28.70
2023-02-18T20:23:30.503Z,26.07
2023-02-18T20:25:57.462Z,25.17
2023-02-18T20:28:24.407Z,22.77
2023-02-18T20:30:51.314Z,23.27
2023-02-18T20:33:18.245Z,23.37
2023-02-18T20:35:45.121Z,24.00
2023-02-18T20:38:11.984Z,22.63
2023-02-18T20:40:38.857Z,25.60
2023-02-18T20:43:05.708Z,24.87
2023-02-18T20:45:33.082Z,24.27
2023-02-18T20:47:59.927Z,19.30
2023-02-18T20:50:26.927Z,19.93
2023-02-18T20:52:53.778Z,19.90
2023-02-18T20:55:20.635Z,20.20
2023-02-18T20:57:47.512Z,17.90
2023-02-18T21:00:15.273Z,18.57
2023-02-18T21:02:42.285Z,17.10
2023-02-18T21:05:09.276Z,16.63
2023-02-18T21:07:36.220Z,13.43
2023-02-18T21:10:04.258Z,14.70
2023-02-18T21:12:31.608Z,13.13
2023-02-18T21:14:58.464Z,9.83
2023-02-18T21:17:25.371Z,9.93
2023-02-18T21:19:52.220Z,9.53
2023-02-18T21:22:19.172Z,8.57
2023-02-18T21:24:46.056Z,7.70
2023-02-18T21:27:12.897Z,6.97
2023-02-18T21:29:39.766Z,7.90
2023-02-18T21:32:07.676Z,7.40
2023-02-18T21:34:34.650Z,6.93
2023-02-18T21:37:01.493Z,6.93
2023-02-18T21:39:28.360Z,6.10
2023-02-18T21:41:57.319Z,7.00
2023-02-18T21:44:32.961Z,6.10
2023-02-18T21:47:07.409Z,6.17
2023-02-18T21:49:34.359Z,6.53
2023-02-18T21:52:08.264Z,7.90
2023-02-18T21:54:40.431Z,7.40
2023-02-18T21:57:12.140Z,8.33
2023-02-18T21:59:39.975Z,8.10
2023-02-18T22:02:12.833Z,9.27
2023-02-18T22:04:39.780Z,10.07
2023-02-18T22:07:06.743Z,10.00
2023-02-18T22:09:33.587Z,12.90
2023-02-18T22:12:00.413Z,17.10
2023-02-18T22:14:27.390Z,19.97
2023-02-18T22:16:54.275Z,27.80
2023-02-18T22:19:21.324Z,29.77
2023-02-18T22:21:49.008Z,34.20
2023-02-18T22:24:16.973Z,35.73
2023-02-18T22:26:45.026Z,36.83
2023-02-18T22:29:13.290Z,33.23
2023-02-18T22:31:40.994Z,36.83
2023-02-18T22:34:08.495Z,34.20
2023-02-18T22:36:35.286Z,35.57
2023-02-18T22:39:02.733Z,34.57
2023-02-18T22:41:31.448Z,36.40
2023-02-18T22:44:01.290Z,33.60
2023-02-18T22:46:30.081Z,34.93
2023-02-18T22:48:58.026Z,33.13
2023-02-18T22:51:44.913Z,31.23
2023-02-18T22:54:14.803Z,32.17
2023-02-18T22:56:42.216Z,29.83
2023-02-18T22:59:11.382Z,31.13
2023-02-18T23:01:41.587Z,29.50
2023-02-18T23:04:11.068Z,29.20
2023-02-18T23:06:39.729Z,26.70
2023-02-18T23:09:07.883Z,26.33
2023-02-18T23:11:34.964Z,24.40
2023-02-18T23:14:19.941Z,24.10
2023-02-18T23:17:15.121Z,22.70
2023-02-18T23:19:53.992Z,22.10
2023-02-18T23:22:35.683Z,21.97
2023-02-18T23:25:02.601Z,22.53
2023-02-18T23:27:30.010Z,23.17
2023-02-18T23:29:57.314Z,23.93
2023-02-18T23:32:24.502Z,23.30
2023-02-18T23:34:51.744Z,24.00
2023-02-18T23:37:38.639Z,24.23
2023-02-18T23:40:06.557Z,23.07
2023-02-18T23:42:33.429Z,24.73
2023-02-18T23:45:00.284Z,22.27
2023-02-18T23:47:27.253Z,23.27
2023-02-18T23:49:54.088Z,23.47
2023-02-18T23:52:20.911Z,22.47
2023-02-18T23:54:47.833Z,24.20
2023-02-18T23:57:14.705Z,22.60
2023-02-18T23:59:41.646Z,22.80
